sensor_id;sensor_type;location;lat;lon;timestamp;P1;durP1;ratioP1;P2;durP2;ratioP2
4468;SDS011;2247;42.666;23.292;2023-10-13T00:01:54;10.90;;;7.43;;
4468;SDS011;2247;42.666;23.292;2023-10-13T00:04:24;10.33;;;7.37;;
4468;SDS011;2247;42.666;23.292;2023-10-13T00:06:51;11.53;;;8.07;;
4468;SDS011;2247;42.666;23.292;2023-10-13T00:09:18;16.13;;;7.77;;
4468;SDS011;2247;42.666;23.292;2023-10-13T00:11:52;13.90;;;7.67;;
4468;SDS011;2247;42.666;23.292;2023-10-13T00:14:20;19.50;;;7.83;;
4468;SDS011;2247;42.666;23.292;2023-10-13T00:16:47;12.37;;;6.77;;
4468;SDS011;2247;42.666;23.292;2023-10-13T00:19:28;12.73;;;7.43;;
4468;SDS011;2247;42.666;23.292;2023-10-13T00:22:03;14.07;;;7.60;;
4468;SDS011;2247;42.666;23.292;2023-10-13T00:24:36;11.67;;;7.40;;
4468;SDS011;2247;42.666;23.292;2023-10-13T00:27:12;13.80;;;7.57;;
4468;SDS011;2247;42.666;23.292;2023-10-13T00:29:54;19.10;;;8.17;;
4468;SDS011;2247;42.666;23.292;2023-10-13T00:32:41;11.37;;;7.57;;
4468;SDS011;2247;42.666;23.292;2023-10-13T00:35:09;11.93;;;6.97;;
4468;SDS011;2247;42.666;23.292;2023-10-13T00:37:38;8.87;;;7.17;;
4468;SDS011;2247;42.666;23.292;2023-10-13T00:40:09;13.30;;;7.50;;
4468;SDS011;2247;42.666;23.292;2023-10-13T00:42:53;15.90;;;7.40;;
4468;SDS011;2247;42.666;23.292;2023-10-13T00:45:20;9.30;;;7.37;;
4468;SDS011;2247;42.666;23.292;2023-10-13T00:47:46;12.20;;;8.10;;
4468;SDS011;2247;42.666;23.292;2023-10-13T00:50:15;9.53;;;7.00;;
4468;SDS011;2247;42.666;23.292;2023-10-13T00:52:43;9.70;;;7.30;;
4468;SDS011;2247;42.666;23.292;2023-10-13T00:55:16;11.20;;;8.07;;
4468;SDS011;2247;42.666;23.292;2023-10-13T00:57:47;11.70;;;7.93;;
4468;SDS011;2247;42.666;23.292;2023-10-13T01:00:20;13.30;;;7.27;;
4468;SDS011;2247;42.666;23.292;2023-10-13T01:02:50;12.43;;;7.47;;
4468;SDS011;2247;42.666;23.292;2023-10-13T01:05:21;14.40;;;7.93;;
4468;SDS011;2247;42.666;23.292;2023-10-13T01:07:48;13.23;;;7.73;;
4468;SDS011;2247;42.666;23.292;2023-10-13T01:10:18;9.40;;;7.90;;
4468;SDS011;2247;42.666;23.292;2023-10-13T01:12:45;12.83;;;7.50;;
4468;SDS011;2247;42.666;23.292;2023-10-13T01:15:12;10.40;;;7.67;;
4468;SDS011;2247;42.666;23.292;2023-10-13T01:17:45;15.50;;;8.30;;
4468;SDS011;2247;42.666;23.292;2023-10-13T01:20:12;10.37;;;7.73;;
4468;SDS011;2247;42.666;23.292;2023-10-13T01:22:45;11.00;;;7.57;;
4468;SDS011;2247;42.666;23.292;2023-10-13T01:25:21;11.87;;;8.10;;
4468;SDS011;2247;42.666;23.292;2023-10-13T01:27:50;12.03;;;7.80;;
4468;SDS011;2247;42.666;23.292;2023-10-13T01:30:18;15.13;;;7.83;;
4468;SDS011;2247;42.666;23.292;2023-10-13T01:32:48;10.13;;;7.70;;
4468;SDS011;2247;42.666;23.292;2023-10-13T01:35:16;13.20;;;7.80;;
4468;SDS011;2247;42.666;23.292;2023-10-13T01:37:44;13.80;;;8.20;;
4468;SDS011;2247;42.666;23.292;2023-10-13T01:40:11;12.70;;;8.20;;
4468;SDS011;2247;42.666;23.292;2023-10-13T01:42:39;13.93;;;7.97;;
4468;SDS011;2247;42.666;23.292;2023-10-13T01:45:06;11.67;;;7.27;;
4468;SDS011;2247;42.666;23.292;2023-10-13T01:47:32;10.10;;;7.60;;
4468;SDS011;2247;42.666;23.292;2023-10-13T01:49:59;12.63;;;7.30;;
4468;SDS011;2247;42.666;23.292;2023-10-13T01:52:32;14.30;;;7.70;;
4468;SDS011;2247;42.666;23.292;2023-10-13T01:54:59;13.17;;;7.80;;
4468;SDS011;2247;42.666;23.292;2023-10-13T01:57:26;12.43;;;7.67;;
4468;SDS011;2247;42.666;23.292;2023-10-13T01:59:54;11.37;;;7.40;;
4468;SDS011;2247;42.666;23.292;2023-10-13T02:02:20;9.37;;;6.97;;
4468;SDS011;2247;42.666;23.292;2023-10-13T02:04:54;12.63;;;7.57;;
4468;SDS011;2247;42.666;23.292;2023-10-13T02:07:22;9.73;;;7.53;;
4468;SDS011;2247;42.666;23.292;2023-10-13T02:09:54;14.57;;;7.80;;
4468;SDS011;2247;42.666;23.292;2023-10-13T02:12:21;12.77;;;7.80;;
4468;SDS011;2247;42.666;23.292;2023-10-13T02:14:53;13.13;;;8.50;;
4468;SDS011;2247;42.666;23.292;2023-10-13T02:17:22;12.27;;;7.60;;
4468;SDS011;2247;42.666;23.292;2023-10-13T02:19:48;9.53;;;7.73;;
4468;SDS011;2247;42.666;23.292;2023-10-13T02:22:19;10.27;;;7.00;;
4468;SDS011;2247;42.666;23.292;2023-10-13T02:24:52;11.30;;;7.50;;
4468;SDS011;2247;42.666;23.292;2023-10-13T02:27:22;12.17;;;7.67;;
4468;SDS011;2247;42.666;23.292;2023-10-13T02:29:49;13.87;;;7.80;;
4468;SDS011;2247;42.666;23.292;2023-10-13T02:32:25;14.27;;;8.00;;
4468;SDS011;2247;42.666;23.292;2023-10-13T02:34:52;11.13;;;7.67;;
4468;SDS011;2247;42.666;23.292;2023-10-13T02:37:22;11.47;;;8.03;;
4468;SDS011;2247;42.666;23.292;2023-10-13T02:39:48;13.57;;;7.00;;
4468;SDS011;2247;42.666;23.292;2023-10-13T02:42:15;12.90;;;7.70;;
4468;SDS011;2247;42.666;23.292;2023-10-13T02:44:48;10.10;;;7.50;;
4468;SDS011;2247;42.666;23.292;2023-10-13T02:47:16;13.03;;;7.80;;
4468;SDS011;2247;42.666;23.292;2023-10-13T02:49:45;16.00;;;7.40;;
4468;SDS011;2247;42.666;23.292;2023-10-13T02:52:13;12.70;;;7.50;;
4468;SDS011;2247;42.666;23.292;2023-10-13T02:54:39;13.67;;;7.90;;
4468;SDS011;2247;42.666;23.292;2023-10-13T02:57:12;16.80;;;9.83;;
4468;SDS011;2247;42.666;23.292;2023-10-13T02:59:38;24.47;;;12.60;;
4468;SDS011;2247;42.666;23.292;2023-10-13T03:02:12;19.07;;;10.50;;
4468;SDS011;2247;42.666;23.292;2023-10-13T03:04:50;18.97;;;11.80;;
4468;SDS011;2247;42.666;23.292;2023-10-13T03:07:17;16.10;;;9.53;;
4468;SDS011;2247;42.666;23.292;2023-10-13T03:09:48;16.10;;;9.53;;
4468;SDS011;2247;42.666;23.292;2023-10-13T03:12:17;18.30;;;8.90;;
4468;SDS011;2247;42.666;23.292;2023-10-13T03:14:44;14.70;;;9.37;;
4468;SDS011;2247;42.666;23.292;2023-10-13T03:17:13;17.80;;;9.00;;
4468;SDS011;2247;42.666;23.292;2023-10-13T03:19:42;14.97;;;9.10;;
4468;SDS011;2247;42.666;23.292;2023-10-13T03:22:13;14.90;;;8.83;;
4468;SDS011;2247;42.666;23.292;2023-10-13T03:24:41;12.87;;;8.43;;
4468;SDS011;2247;42.666;23.292;2023-10-13T03:27:11;17.07;;;9.60;;
4468;SDS011;2247;42.666;23.292;2023-10-13T03:29:41;12.13;;;8.63;;
4468;SDS011;2247;42.666;23.292;2023-10-13T03:32:09;14.83;;;8.53;;
4468;SDS011;2247;42.666;23.292;2023-10-13T03:34:38;17.13;;;9.27;;
4468;SDS011;2247;42.666;23.292;2023-10-13T03:37:17;15.93;;;9.07;;
4468;SDS011;2247;42.666;23.292;2023-10-13T03:40:00;12.10;;;9.57;;
4468;SDS011;2247;42.666;23.292;2023-10-13T03:42:31;14.03;;;9.47;;
4468;SDS011;2247;42.666;23.292;2023-10-13T03:44:58;15.00;;;10.33;;
4468;SDS011;2247;42.666;23.292;2023-10-13T03:47:25;11.77;;;8.80;;
4468;SDS011;2247;42.666;23.292;2023-10-13T03:49:57;19.23;;;9.03;;
4468;SDS011;2247;42.666;23.292;2023-10-13T03:52:39;14.70;;;9.03;;
4468;SDS011;2247;42.666;23.292;2023-10-13T03:55:06;17.80;;;9.10;;
4468;SDS011;2247;42.666;23.292;2023-10-13T03:57:41;16.47;;;8.87;;
4468;SDS011;2247;42.666;23.292;2023-10-13T04:00:08;12.97;;;9.13;;
4468;SDS011;2247;42.666;23.292;2023-10-13T04:02:46;19.90;;;9.77;;
4468;SDS011;2247;42.666;23.292;2023-10-13T04:05:19;15.20;;;9.13;;
4468;SDS011;2247;42.666;23.292;2023-10-13T04:08:04;17.63;;;8.60;;
4468;SDS011;2247;42.666;23.292;2023-10-13T04:10:57;16.03;;;8.87;;
4468;SDS011;2247;42.666;23.292;2023-10-13T04:13:42;15.23;;;8.60;;
4468;SDS011;2247;42.666;23.292;2023-10-13T04:16:27;14.43;;;8.57;;
4468;SDS011;2247;42.666;23.292;2023-10-13T04:19:03;16.50;;;9.73;;
4468;SDS011;2247;42.666;23.292;2023-10-13T04:21:44;20.97;;;9.60;;
4468;SDS011;2247;42.666;23.292;2023-10-13T04:24:24;17.33;;;9.43;;
4468;SDS011;2247;42.666;23.292;2023-10-13T04:27:24;14.50;;;9.90;;
4468;SDS011;2247;42.666;23.292;2023-10-13T04:30:18;24.87;;;9.90;;
4468;SDS011;2247;42.666;23.292;2023-10-13T04:32:52;26.03;;;10.13;;
4468;SDS011;2247;42.666;23.292;2023-10-13T04:36:01;22.43;;;10.40;;
4468;SDS011;2247;42.666;23.292;2023-10-13T04:38:39;45.17;;;11.23;;
4468;SDS011;2247;42.666;23.292;2023-10-13T04:41:23;19.10;;;9.40;;
4468;SDS011;2247;42.666;23.292;2023-10-13T04:43:49;22.20;;;9.20;;
4468;SDS011;2247;42.666;23.292;2023-10-13T04:46:29;23.40;;;9.67;;
4468;SDS011;2247;42.666;23.292;2023-10-13T04:49:19;15.57;;;10.90;;
4468;SDS011;2247;42.666;23.292;2023-10-13T04:51:54;20.60;;;9.70;;
4468;SDS011;2247;42.666;23.292;2023-10-13T04:54:38;17.43;;;10.37;;
4468;SDS011;2247;42.666;23.292;2023-10-13T04:57:17;25.77;;;11.07;;
4468;SDS011;2247;42.666;23.292;2023-10-13T04:59:49;19.03;;;9.40;;
4468;SDS011;2247;42.666;23.292;2023-10-13T05:02:34;22.83;;;10.27;;
4468;SDS011;2247;42.666;23.292;2023-10-13T05:05:42;30.40;;;11.60;;
4468;SDS011;2247;42.666;23.292;2023-10-13T05:08:31;28.87;;;9.80;;
4468;SDS011;2247;42.666;23.292;2023-10-13T05:11:16;22.23;;;10.10;;
4468;SDS011;2247;42.666;23.292;2023-10-13T05:14:02;30.30;;;10.00;;
4468;SDS011;2247;42.666;23.292;2023-10-13T05:16:46;21.77;;;10.13;;
4468;SDS011;2247;42.666;23.292;2023-10-13T05:19:32;17.23;;;10.60;;
4468;SDS011;2247;42.666;23.292;2023-10-13T05:22:15;28.47;;;11.40;;
4468;SDS011;2247;42.666;23.292;2023-10-13T05:25:00;24.93;;;9.73;;
4468;SDS011;2247;42.666;23.292;2023-10-13T05:27:44;25.80;;;10.77;;
4468;SDS011;2247;42.666;23.292;2023-10-13T05:30:31;20.90;;;11.10;;
4468;SDS011;2247;42.666;23.292;2023-10-13T05:33:15;24.53;;;13.30;;
4468;SDS011;2247;42.666;23.292;2023-10-13T05:35:59;18.53;;;9.87;;
4468;SDS011;2247;42.666;23.292;2023-10-13T05:38:43;38.60;;;11.80;;
4468;SDS011;2247;42.666;23.292;2023-10-13T05:41:28;17.83;;;10.70;;
4468;SDS011;2247;42.666;23.292;2023-10-13T05:44:13;22.23;;;10.13;;
4468;SDS011;2247;42.666;23.292;2023-10-13T05:46:59;20.63;;;11.13;;
4468;SDS011;2247;42.666;23.292;2023-10-13T05:49:59;25.00;;;10.17;;
4468;SDS011;2247;42.666;23.292;2023-10-13T05:52:30;36.67;;;11.73;;
4468;SDS011;2247;42.666;23.292;2023-10-13T05:55:15;25.47;;;11.63;;
4468;SDS011;2247;42.666;23.292;2023-10-13T05:57:59;23.50;;;11.70;;
4468;SDS011;2247;42.666;23.292;2023-10-13T06:00:43;22.07;;;11.53;;
4468;SDS011;2247;42.666;23.292;2023-10-13T06:03:28;27.60;;;12.03;;
4468;SDS011;2247;42.666;23.292;2023-10-13T06:06:13;25.00;;;12.20;;
4468;SDS011;2247;42.666;23.292;2023-10-13T06:08:57;24.23;;;11.83;;
4468;SDS011;2247;42.666;23.292;2023-10-13T06:11:41;29.60;;;12.33;;
4468;SDS011;2247;42.666;23.292;2023-10-13T06:14:26;30.57;;;13.43;;
4468;SDS011;2247;42.666;23.292;2023-10-13T06:17:10;36.03;;;13.57;;
4468;SDS011;2247;42.666;23.292;2023-10-13T06:19:55;22.13;;;14.50;;
4468;SDS011;2247;42.666;23.292;2023-10-13T06:22:39;51.83;;;15.50;;
4468;SDS011;2247;42.666;23.292;2023-10-13T06:25:23;30.70;;;14.00;;
4468;SDS011;2247;42.666;23.292;2023-10-13T06:28:08;29.63;;;14.80;;
4468;SDS011;2247;42.666;23.292;2023-10-13T06:30:56;26.67;;;13.57;;
4468;SDS011;2247;42.666;23.292;2023-10-13T06:33:26;22.53;;;14.00;;
4468;SDS011;2247;42.666;23.292;2023-10-13T06:35:57;40.93;;;15.33;;
4468;SDS011;2247;42.666;23.292;2023-10-13T06:38:24;27.90;;;15.00;;
4468;SDS011;2247;42.666;23.292;2023-10-13T06:40:56;30.50;;;15.20;;
4468;SDS011;2247;42.666;23.292;2023-10-13T06:43:23;27.90;;;15.20;;
4468;SDS011;2247;42.666;23.292;2023-10-13T06:45:50;20.23;;;13.73;;
4468;SDS011;2247;42.666;23.292;2023-10-13T06:48:22;31.50;;;13.70;;
4468;SDS011;2247;42.666;23.292;2023-10-13T06:50:50;30.53;;;16.40;;
4468;SDS011;2247;42.666;23.292;2023-10-13T06:53:19;23.30;;;13.97;;
4468;SDS011;2247;42.666;23.292;2023-10-13T06:55:46;26.57;;;13.27;;
4468;SDS011;2247;42.666;23.292;2023-10-13T06:58:17;32.57;;;14.60;;
4468;SDS011;2247;42.666;23.292;2023-10-13T07:00:49;27.20;;;14.67;;
4468;SDS011;2247;42.666;23.292;2023-10-13T07:03:21;26.60;;;13.97;;
4468;SDS011;2247;42.666;23.292;2023-10-13T07:05:48;37.80;;;14.23;;
4468;SDS011;2247;42.666;23.292;2023-10-13T07:08:16;28.40;;;15.47;;
4468;SDS011;2247;42.666;23.292;2023-10-13T07:10:49;23.00;;;13.87;;
4468;SDS011;2247;42.666;23.292;2023-10-13T07:13:27;35.07;;;15.90;;
4468;SDS011;2247;42.666;23.292;2023-10-13T07:15:54;35.00;;;15.00;;
4468;SDS011;2247;42.666;23.292;2023-10-13T07:18:26;33.73;;;14.13;;
4468;SDS011;2247;42.666;23.292;2023-10-13T07:21:00;27.00;;;15.40;;
4468;SDS011;2247;42.666;23.292;2023-10-13T07:23:34;28.53;;;14.90;;
4468;SDS011;2247;42.666;23.292;2023-10-13T07:26:04;30.20;;;14.77;;
4468;SDS011;2247;42.666;23.292;2023-10-13T07:28:34;28.00;;;15.40;;
4468;SDS011;2247;42.666;23.292;2023-10-13T07:31:08;25.27;;;14.40;;
4468;SDS011;2247;42.666;23.292;2023-10-13T07:33:38;26.23;;;15.13;;
4468;SDS011;2247;42.666;23.292;2023-10-13T07:36:06;65.33;;;16.97;;
4468;SDS011;2247;42.666;23.292;2023-10-13T07:38:53;26.33;;;14.23;;
4468;SDS011;2247;42.666;23.292;2023-10-13T07:41:40;39.77;;;15.90;;
4468;SDS011;2247;42.666;23.292;2023-10-13T07:44:07;27.50;;;15.03;;
4468;SDS011;2247;42.666;23.292;2023-10-13T07:46:38;34.63;;;15.40;;
4468;SDS011;2247;42.666;23.292;2023-10-13T07:49:04;29.83;;;14.60;;
4468;SDS011;2247;42.666;23.292;2023-10-13T07:51:40;28.13;;;14.60;;
4468;SDS011;2247;42.666;23.292;2023-10-13T07:54:10;27.93;;;14.43;;
4468;SDS011;2247;42.666;23.292;2023-10-13T07:56:38;32.73;;;14.70;;
4468;SDS011;2247;42.666;23.292;2023-10-13T07:59:07;24.03;;;14.13;;
4468;SDS011;2247;42.666;23.292;2023-10-13T08:01:35;27.73;;;13.70;;
4468;SDS011;2247;42.666;23.292;2023-10-13T08:04:02;29.90;;;14.10;;
4468;SDS011;2247;42.666;23.292;2023-10-13T08:06:36;26.17;;;14.43;;
4468;SDS011;2247;42.666;23.292;2023-10-13T08:09:05;30.23;;;15.77;;
4468;SDS011;2247;42.666;23.292;2023-10-13T08:11:55;37.13;;;15.87;;
4468;SDS011;2247;42.666;23.292;2023-10-13T08:14:23;25.97;;;14.73;;
4468;SDS011;2247;42.666;23.292;2023-10-13T08:16:58;32.27;;;15.00;;
4468;SDS011;2247;42.666;23.292;2023-10-13T08:19:26;26.13;;;14.53;;
4468;SDS011;2247;42.666;23.292;2023-10-13T08:21:58;29.80;;;15.90;;
4468;SDS011;2247;42.666;23.292;2023-10-13T08:24:49;31.93;;;14.70;;
4468;SDS011;2247;42.666;23.292;2023-10-13T08:27:40;26.70;;;16.90;;
4468;SDS011;2247;42.666;23.292;2023-10-13T08:30:17;46.90;;;17.00;;
4468;SDS011;2247;42.666;23.292;2023-10-13T08:32:54;28.97;;;17.30;;
4468;SDS011;2247;42.666;23.292;2023-10-13T08:35:22;32.07;;;16.53;;
4468;SDS011;2247;42.666;23.292;2023-10-13T08:37:49;32.97;;;17.33;;
4468;SDS011;2247;42.666;23.292;2023-10-13T08:40:38;32.73;;;16.83;;
4468;SDS011;2247;42.666;23.292;2023-10-13T08:43:43;30.90;;;17.50;;
4468;SDS011;2247;42.666;23.292;2023-10-13T08:46:17;61.57;;;18.27;;
4468;SDS011;2247;42.666;23.292;2023-10-13T08:48:55;42.63;;;17.70;;
4468;SDS011;2247;42.666;23.292;2023-10-13T08:51:39;34.67;;;17.90;;
4468;SDS011;2247;42.666;23.292;2023-10-13T08:54:13;46.93;;;17.80;;
4468;SDS011;2247;42.666;23.292;2023-10-13T08:56:46;33.40;;;16.63;;
4468;SDS011;2247;42.666;23.292;2023-10-13T08:59:20;30.80;;;16.77;;
4468;SDS011;2247;42.666;23.292;2023-10-13T09:02:00;30.80;;;15.83;;
4468;SDS011;2247;42.666;23.292;2023-10-13T09:04:40;36.27;;;15.37;;
4468;SDS011;2247;42.666;23.292;2023-10-13T09:07:09;29.00;;;14.87;;
4468;SDS011;2247;42.666;23.292;2023-10-13T09:09:46;30.90;;;14.10;;
4468;SDS011;2247;42.666;23.292;2023-10-13T09:12:37;32.77;;;15.17;;
4468;SDS011;2247;42.666;23.292;2023-10-13T09:15:06;39.50;;;14.90;;
4468;SDS011;2247;42.666;23.292;2023-10-13T09:17:46;31.03;;;14.47;;
4468;SDS011;2247;42.666;23.292;2023-10-13T09:20:17;31.53;;;14.70;;
4468;SDS011;2247;42.666;23.292;2023-10-13T09:22:58;45.40;;;18.40;;
4468;SDS011;2247;42.666;23.292;2023-10-13T09:25:33;29.63;;;14.90;;
4468;SDS011;2247;42.666;23.292;2023-10-13T09:28:02;30.53;;;14.93;;
4468;SDS011;2247;42.666;23.292;2023-10-13T09:30:43;34.33;;;13.90;;
4468;SDS011;2247;42.666;23.292;2023-10-13T09:33:11;36.60;;;15.33;;
4468;SDS011;2247;42.666;23.292;2023-10-13T09:35:44;32.40;;;13.03;;
4468;SDS011;2247;42.666;23.292;2023-10-13T09:38:14;29.40;;;13.43;;
4468;SDS011;2247;42.666;23.292;2023-10-13T09:40:42;27.33;;;12.10;;
4468;SDS011;2247;42.666;23.292;2023-10-13T09:43:15;33.07;;;10.87;;
4468;SDS011;2247;42.666;23.292;2023-10-13T09:45:43;26.70;;;10.43;;
4468;SDS011;2247;42.666;23.292;2023-10-13T09:48:30;29.13;;;11.70;;
4468;SDS011;2247;42.666;23.292;2023-10-13T09:50:59;18.13;;;9.50;;
4468;SDS011;2247;42.666;23.292;2023-10-13T09:53:28;17.23;;;8.83;;
4468;SDS011;2247;42.666;23.292;2023-10-13T09:55:59;14.13;;;7.57;;
4468;SDS011;2247;42.666;23.292;2023-10-13T09:58:38;27.87;;;8.80;;
4468;SDS011;2247;42.666;23.292;2023-10-13T10:01:17;19.80;;;8.90;;
4468;SDS011;2247;42.666;23.292;2023-10-13T10:04:05;23.77;;;7.00;;
4468;SDS011;2247;42.666;23.292;2023-10-13T10:06:34;17.27;;;6.93;;
4468;SDS011;2247;42.666;23.292;2023-10-13T10:09:05;16.23;;;6.60;;
4468;SDS011;2247;42.666;23.292;2023-10-13T10:11:48;23.80;;;7.53;;
4468;SDS011;2247;42.666;23.292;2023-10-13T10:14:28;13.30;;;6.40;;
4468;SDS011;2247;42.666;23.292;2023-10-13T10:17:09;19.50;;;6.63;;
4468;SDS011;2247;42.666;23.292;2023-10-13T10:19:48;14.63;;;7.03;;
4468;SDS011;2247;42.666;23.292;2023-10-13T10:22:25;13.93;;;7.20;;
4468;SDS011;2247;42.666;23.292;2023-10-13T10:24:56;12.90;;;7.77;;
4468;SDS011;2247;42.666;23.292;2023-10-13T10:27:24;17.20;;;7.90;;
4468;SDS011;2247;42.666;23.292;2023-10-13T10:29:55;14.43;;;7.63;;
4468;SDS011;2247;42.666;23.292;2023-10-13T10:32:31;34.27;;;7.47;;
4468;SDS011;2247;42.666;23.292;2023-10-13T10:35:04;16.50;;;6.73;;
4468;SDS011;2247;42.666;23.292;2023-10-13T10:37:34;13.40;;;6.13;;
4468;SDS011;2247;42.666;23.292;2023-10-13T10:40:06;11.87;;;4.47;;
4468;SDS011;2247;42.666;23.292;2023-10-13T10:42:43;12.10;;;4.90;;
4468;SDS011;2247;42.666;23.292;2023-10-13T10:45:11;13.50;;;4.50;;
4468;SDS011;2247;42.666;23.292;2023-10-13T10:47:38;8.80;;;5.70;;
4468;SDS011;2247;42.666;23.292;2023-10-13T10:50:24;14.63;;;5.10;;
4468;SDS011;2247;42.666;23.292;2023-10-13T10:53:00;11.20;;;5.63;;
4468;SDS011;2247;42.666;23.292;2023-10-13T10:55:34;11.60;;;5.40;;
4468;SDS011;2247;42.666;23.292;2023-10-13T10:58:01;13.33;;;5.07;;
4468;SDS011;2247;42.666;23.292;2023-10-13T11:00:31;15.50;;;5.00;;
4468;SDS011;2247;42.666;23.292;2023-10-13T11:03:11;12.53;;;5.50;;
4468;SDS011;2247;42.666;23.292;2023-10-13T11:05:46;15.37;;;5.10;;
4468;SDS011;2247;42.666;23.292;2023-10-13T11:08:22;11.53;;;4.53;;
4468;SDS011;2247;42.666;23.292;2023-10-13T11:10:57;13.80;;;4.60;;
4468;SDS011;2247;42.666;23.292;2023-10-13T11:13:25;13.73;;;5.20;;
4468;SDS011;2247;42.666;23.292;2023-10-13T11:15:56;11.43;;;3.30;;
4468;SDS011;2247;42.666;23.292;2023-10-13T11:18:29;11.10;;;3.67;;
4468;SDS011;2247;42.666;23.292;2023-10-13T11:21:00;14.73;;;9.13;;
4468;SDS011;2247;42.666;23.292;2023-10-13T11:23:32;8.73;;;4.10;;
4468;SDS011;2247;42.666;23.292;2023-10-13T11:26:01;19.07;;;3.70;;
4468;SDS011;2247;42.666;23.292;2023-10-13T11:28:29;10.77;;;3.90;;
4468;SDS011;2247;42.666;23.292;2023-10-13T11:30:59;11.17;;;4.20;;
4468;SDS011;2247;42.666;23.292;2023-10-13T11:33:35;8.33;;;3.60;;
4468;SDS011;2247;42.666;23.292;2023-10-13T11:36:08;6.57;;;3.20;;
4468;SDS011;2247;42.666;23.292;2023-10-13T11:38:42;11.23;;;3.87;;
4468;SDS011;2247;42.666;23.292;2023-10-13T11:41:14;5.83;;;2.63;;
4468;SDS011;2247;42.666;23.292;2023-10-13T11:43:42;8.70;;;2.63;;
4468;SDS011;2247;42.666;23.292;2023-10-13T11:46:30;8.70;;;2.93;;
4468;SDS011;2247;42.666;23.292;2023-10-13T11:49:20;10.80;;;3.30;;
4468;SDS011;2247;42.666;23.292;2023-10-13T11:52:01;3.67;;;2.90;;
4468;SDS011;2247;42.666;23.292;2023-10-13T11:54:41;10.70;;;3.33;;
4468;SDS011;2247;42.666;23.292;2023-10-13T11:57:08;9.27;;;2.90;;
4468;SDS011;2247;42.666;23.292;2023-10-13T11:59:35;9.40;;;3.13;;
4468;SDS011;2247;42.666;23.292;2023-10-13T12:02:10;9.23;;;3.33;;
4468;SDS011;2247;42.666;23.292;2023-10-13T12:04:57;8.27;;;3.20;;
4468;SDS011;2247;42.666;23.292;2023-10-13T12:07:26;6.20;;;2.93;;
4468;SDS011;2247;42.666;23.292;2023-10-13T12:10:10;10.23;;;3.10;;
4468;SDS011;2247;42.666;23.292;2023-10-13T12:12:42;7.83;;;3.10;;
4468;SDS011;2247;42.666;23.292;2023-10-13T12:15:11;11.03;;;3.40;;
4468;SDS011;2247;42.666;23.292;2023-10-13T12:17:50;6.87;;;2.93;;
4468;SDS011;2247;42.666;23.292;2023-10-13T12:20:17;6.83;;;3.00;;
4468;SDS011;2247;42.666;23.292;2023-10-13T12:22:58;5.13;;;2.70;;
4468;SDS011;2247;42.666;23.292;2023-10-13T12:25:36;4.20;;;2.43;;
4468;SDS011;2247;42.666;23.292;2023-10-13T12:28:20;5.43;;;2.67;;
4468;SDS011;2247;42.666;23.292;2023-10-13T12:30:48;9.23;;;2.73;;
4468;SDS011;2247;42.666;23.292;2023-10-13T12:33:17;10.73;;;2.60;;
4468;SDS011;2247;42.666;23.292;2023-10-13T12:35:50;4.77;;;2.40;;
4468;SDS011;2247;42.666;23.292;2023-10-13T12:38:34;3.60;;;2.40;;
4468;SDS011;2247;42.666;23.292;2023-10-13T12:41:16;10.73;;;3.37;;
4468;SDS011;2247;42.666;23.292;2023-10-13T12:44:01;4.87;;;2.87;;
4468;SDS011;2247;42.666;23.292;2023-10-13T12:46:46;6.43;;;2.53;;
4468;SDS011;2247;42.666;23.292;2023-10-13T12:49:32;11.03;;;2.90;;
4468;SDS011;2247;42.666;23.292;2023-10-13T12:52:14;5.73;;;3.00;;
4468;SDS011;2247;42.666;23.292;2023-10-13T12:54:46;10.07;;;3.47;;
4468;SDS011;2247;42.666;23.292;2023-10-13T12:57:23;15.30;;;2.83;;
4468;SDS011;2247;42.666;23.292;2023-10-13T12:59:51;5.00;;;2.70;;
4468;SDS011;2247;42.666;23.292;2023-10-13T13:02:19;8.67;;;2.73;;
4468;SDS011;2247;42.666;23.292;2023-10-13T13:04:46;7.77;;;3.00;;
4468;SDS011;2247;42.666;23.292;2023-10-13T13:07:19;7.23;;;3.53;;
4468;SDS011;2247;42.666;23.292;2023-10-13T13:09:47;5.00;;;2.60;;
4468;SDS011;2247;42.666;23.292;2023-10-13T13:12:15;4.80;;;2.53;;
4468;SDS011;2247;42.666;23.292;2023-10-13T13:14:42;6.40;;;2.70;;
4468;SDS011;2247;42.666;23.292;2023-10-13T13:17:11;5.17;;;3.10;;
4468;SDS011;2247;42.666;23.292;2023-10-13T13:19:38;6.70;;;2.63;;
4468;SDS011;2247;42.666;23.292;2023-10-13T13:22:05;7.80;;;3.20;;
4468;SDS011;2247;42.666;23.292;2023-10-13T13:24:37;7.27;;;2.80;;
4468;SDS011;2247;42.666;23.292;2023-10-13T13:27:10;6.10;;;3.27;;
4468;SDS011;2247;42.666;23.292;2023-10-13T13:29:39;10.90;;;2.83;;
4468;SDS011;2247;42.666;23.292;2023-10-13T13:32:06;6.00;;;2.30;;
4468;SDS011;2247;42.666;23.292;2023-10-13T13:34:42;66.13;;;7.00;;
4468;SDS011;2247;42.666;23.292;2023-10-13T13:37:09;11.63;;;3.73;;
4468;SDS011;2247;42.666;23.292;2023-10-13T13:39:38;10.07;;;3.63;;
4468;SDS011;2247;42.666;23.292;2023-10-13T13:42:12;7.00;;;2.70;;
4468;SDS011;2247;42.666;23.292;2023-10-13T13:44:42;11.47;;;3.30;;
4468;SDS011;2247;42.666;23.292;2023-10-13T13:47:11;17.37;;;3.63;;
4468;SDS011;2247;42.666;23.292;2023-10-13T13:49:38;4.30;;;3.13;;
4468;SDS011;2247;42.666;23.292;2023-10-13T13:52:16;8.70;;;3.10;;
4468;SDS011;2247;42.666;23.292;2023-10-13T13:54:46;4.93;;;3.20;;
4468;SDS011;2247;42.666;23.292;2023-10-13T13:57:15;7.07;;;3.13;;
4468;SDS011;2247;42.666;23.292;2023-10-13T13:59:42;5.37;;;2.80;;
4468;SDS011;2247;42.666;23.292;2023-10-13T14:02:10;15.53;;;4.30;;
4468;SDS011;2247;42.666;23.292;2023-10-13T14:04:45;6.90;;;3.17;;
4468;SDS011;2247;42.666;23.292;2023-10-13T14:07:15;5.43;;;2.93;;
4468;SDS011;2247;42.666;23.292;2023-10-13T14:09:44;10.87;;;3.63;;
4468;SDS011;2247;42.666;23.292;2023-10-13T14:12:17;8.20;;;3.27;;
4468;SDS011;2247;42.666;23.292;2023-10-13T14:15:01;7.63;;;3.70;;
4468;SDS011;2247;42.666;23.292;2023-10-13T14:17:28;7.20;;;3.30;;
4468;SDS011;2247;42.666;23.292;2023-10-13T14:19:55;8.33;;;4.00;;
4468;SDS011;2247;42.666;23.292;2023-10-13T14:22:23;7.73;;;3.77;;
4468;SDS011;2247;42.666;23.292;2023-10-13T14:24:51;14.47;;;3.30;;
4468;SDS011;2247;42.666;23.292;2023-10-13T14:27:22;9.03;;;3.20;;
4468;SDS011;2247;42.666;23.292;2023-10-13T14:29:51;11.60;;;3.30;;
4468;SDS011;2247;42.666;23.292;2023-10-13T14:32:19;11.70;;;3.60;;
4468;SDS011;2247;42.666;23.292;2023-10-13T14:34:49;17.30;;;3.57;;
4468;SDS011;2247;42.666;23.292;2023-10-13T14:37:21;9.70;;;3.80;;
4468;SDS011;2247;42.666;23.292;2023-10-13T14:39:54;9.30;;;3.60;;
4468;SDS011;2247;42.666;23.292;2023-10-13T14:42:25;10.83;;;3.50;;
4468;SDS011;2247;42.666;23.292;2023-10-13T14:44:52;6.23;;;3.03;;
4468;SDS011;2247;42.666;23.292;2023-10-13T14:47:22;19.47;;;3.80;;
4468;SDS011;2247;42.666;23.292;2023-10-13T14:49:50;5.57;;;3.37;;
4468;SDS011;2247;42.666;23.292;2023-10-13T14:52:20;10.40;;;3.90;;
4468;SDS011;2247;42.666;23.292;2023-10-13T14:54:47;6.73;;;3.30;;
4468;SDS011;2247;42.666;23.292;2023-10-13T14:57:20;8.80;;;4.10;;
4468;SDS011;2247;42.666;23.292;2023-10-13T14:59:51;15.03;;;3.60;;
4468;SDS011;2247;42.666;23.292;2023-10-13T15:02:19;15.87;;;3.47;;
4468;SDS011;2247;42.666;23.292;2023-10-13T15:04:46;18.47;;;3.97;;
4468;SDS011;2247;42.666;23.292;2023-10-13T15:07:14;18.33;;;3.43;;
4468;SDS011;2247;42.666;23.292;2023-10-13T15:09:45;8.60;;;3.27;;
4468;SDS011;2247;42.666;23.292;2023-10-13T15:12:12;7.53;;;3.60;;
4468;SDS011;2247;42.666;23.292;2023-10-13T15:14:39;12.17;;;4.20;;
4468;SDS011;2247;42.666;23.292;2023-10-13T15:17:10;11.73;;;3.80;;
4468;SDS011;2247;42.666;23.292;2023-10-13T15:19:41;8.50;;;3.87;;
4468;SDS011;2247;42.666;23.292;2023-10-13T15:22:08;16.70;;;4.73;;
4468;SDS011;2247;42.666;23.292;2023-10-13T15:24:41;12.10;;;5.33;;
4468;SDS011;2247;42.666;23.292;2023-10-13T15:27:10;11.07;;;4.97;;